Dover Air Force Base Dover US
ICAO: KDOV
IATA: DOV
Category: Large
Scheduled Services: No

Elevation: 24 ft
TransAlt. 18000 ft.

Airport Communications:
APP:132.425
ATIS:135.05
CLNC DEL:125.55
DEP:32.3
GND:118.875
PMSV METRO:34.2
COMD POST:134.1
PTD:134.1
MILLVILLE RDO:111.4
TWR:126.35

KDOV Zoom In..

If you have problems with the map follow the link
https://www.worldairports.se/pages/airport.php?
ICAO=KDOV

Runways:

(A) RW 01 length 9602 ft width 200 ft
ILS 109.95 / hdg 13

(B) RW 14 length 12903 ft width 150 ft
---- / hdg 136

(C) RW 19 length 9602 ft width 200 ft
ILS 111.90 / hdg 193

(D) RW 32 length 12903 ft width 150 ft
---- / hdg 316

Location; KDOV
Day. 20 / Time. 20.56 Zulu
* Altimeter: 30.33
* Temperature: 02° c. 35.6°f.
* Wind from: 100° Speed 11 kn.
Dewpoint: 01° c.
Visibility: 10 Statute Miles.
Clouds: Overcast 800 ft.

KDOV 202056Z 10011KT 10SM OVC008 02/01 A3033 RMK AO2A SLP274 60000 T00180008 57039 $


Wind From 100°
Speed 11 kn.

 
 
jpsmedia.com for Web Design worldairports.se 2019   terms of use